Terminal Aerodrome Forecast
Issued by NWS Pocatello, ID

Home | Current Version | Previous Version | Text Only | Print | Product List | Glossary On
Versions: 1 2 3 4 5 6 7 8 9 10 11 12 13 14 15 16 17 18 19 20 21 22
000
FTUS45 KPIH 300600 AAA
TAFIDA
TAF AMD
KIDA 300621Z 3006/0106 20010KT P6SM VCSH SCT008 BKN015 OVC025
     FM301000 18009KT 6SM -RA SCT005 OVC010
     FM301700 21018G27KT P6SM VCSH BKN020 BKN040
     FM302000 23022G32KT P6SM FEW025 SCT080
     FM010300 21015KT P6SM FEW090=

USA.gov is the U.S. government's official web portal to all federal, state and local government web resources and services.